createdAt,value
2022-08-11T00:04:26.296Z,93937.94
2022-08-11T00:09:39.453Z,93946.50
2022-08-11T00:14:43.115Z,93950.88
2022-08-11T00:20:13.978Z,93959.72
2022-08-11T00:25:16.037Z,93963.13
2022-08-11T00:30:18.181Z,93959.28
2022-08-11T00:35:54.865Z,93965.13
2022-08-11T00:40:53.670Z,93969.50
2022-08-11T00:46:20.178Z,93967.56
2022-08-11T00:52:03.915Z,93975.03
2022-08-11T00:57:37.046Z,93970.66
2022-08-11T01:02:45.549Z,93975.03
2022-08-11T01:08:02.417Z,93980.50
2022-08-11T01:13:42.673Z,93988.81
2022-08-11T01:19:25.549Z,93975.66
2022-08-11T01:24:57.893Z,93980.28
2022-08-11T01:30:21.035Z,93978.09
2022-08-11T01:36:01.080Z,93974.59
2022-08-11T01:41:52.317Z,93982.13
2022-08-11T01:46:57.057Z,93974.44
2022-08-11T01:52:14.921Z,93977.28
2022-08-11T01:58:09.349Z,93990.63
2022-08-11T02:03:19.154Z,93983.28
2022-08-11T02:08:44.218Z,93979.56
2022-08-11T02:14:16.790Z,93983.78
2022-08-11T02:19:37.513Z,93984.56
2022-08-11T02:25:07.363Z,93989.72
2022-08-11T02:30:13.161Z,93991.00
2022-08-11T02:35:29.274Z,93999.00
2022-08-11T02:40:35.259Z,93998.13
2022-08-11T02:45:38.266Z,94003.53
2022-08-11T02:51:09.163Z,94001.56
2022-08-11T02:56:36.681Z,94004.97
2022-08-11T03:01:53.378Z,94008.22
2022-08-11T03:07:28.903Z,94010.97
2022-08-11T03:13:08.003Z,93999.34
2022-08-11T03:18:26.964Z,94000.91
2022-08-11T03:23:31.777Z,94010.94
2022-08-11T03:29:06.160Z,94004.44
2022-08-11T03:34:16.694Z,94008.59
2022-08-11T03:39:33.773Z,94014.22
2022-08-11T03:45:03.500Z,94009.25
2022-08-11T03:50:11.891Z,94003.09
2022-08-11T03:55:32.469Z,94000.03
2022-08-11T04:00:51.417Z,94007.91
2022-08-11T04:06:14.475Z,94006.47
2022-08-11T04:11:47.570Z,94003.16
2022-08-11T04:17:08.239Z,94014.00
2022-08-11T04:22:23.751Z,94023.00
2022-08-11T04:27:44.421Z,94031.81
2022-08-11T04:33:07.385Z,94037.88
2022-08-11T04:38:15.532Z,94037.97
2022-08-11T04:44:07.196Z,94048.25
2022-08-11T04:49:58.753Z,94035.19
2022-08-11T04:55:28.179Z,94048.44
2022-08-11T05:00:54.667Z,94052.53
2022-08-11T05:06:08.044Z,94062.66
2022-08-11T05:11:41.133Z,94070.53
2022-08-11T05:17:09.371Z,94064.38
2022-08-11T05:22:32.223Z,94079.22
2022-08-11T05:27:58.239Z,94072.03
2022-08-11T05:33:25.641Z,94073.72
2022-08-11T05:38:47.430Z,94087.09
2022-08-11T05:44:19.963Z,94082.03
2022-08-11T05:49:43.410Z,94095.50
2022-08-11T05:55:06.944Z,94094.72
2022-08-11T06:00:10.519Z,94097.19
2022-08-11T06:05:12.934Z,94100.25
2022-08-11T06:10:25.867Z,94099.63
2022-08-11T06:15:31.437Z,94106.34
2022-08-11T06:20:50.007Z,94115.56
2022-08-11T06:25:53.068Z,94113.97
2022-08-11T06:30:58.545Z,94125.25
2022-08-11T06:36:05.669Z,94125.53
2022-08-11T06:41:32.215Z,94124.28
2022-08-11T06:46:39.699Z,94126.22
2022-08-11T06:51:41.938Z,94127.84
2022-08-11T07:02:34.758Z,94130.41
2022-08-11T07:08:34.641Z,94131.22
2022-08-11T07:13:56.599Z,94143.22
2022-08-11T07:19:22.867Z,94141.00
2022-08-11T07:24:59.415Z,94154.13
2022-08-11T07:30:10.483Z,94150.75
2022-08-11T07:35:16.470Z,94148.94
2022-08-11T07:40:23.296Z,94153.91
2022-08-11T07:45:44.635Z,94149.78
2022-08-11T07:51:05.742Z,94149.63
2022-08-11T07:56:08.505Z,94146.22
2022-08-11T08:01:42.769Z,94150.63
2022-08-11T08:07:03.800Z,94142.31
2022-08-11T08:12:25.276Z,94135.50
2022-08-11T08:17:45.895Z,94135.44
2022-08-11T08:23:08.835Z,94141.38
2022-08-11T08:28:14.273Z,94137.81
2022-08-11T08:33:24.242Z,94129.34
2022-08-11T08:38:26.327Z,94128.34
2022-08-11T08:43:28.401Z,94131.84
2022-08-11T08:48:31.361Z,94135.22
2022-08-11T08:53:36.275Z,94123.34
2022-08-11T08:58:39.481Z,94121.63
2022-08-11T09:04:06.660Z,94111.63
2022-08-11T09:09:05.085Z,94112.25
2022-08-11T09:14:11.497Z,94111.44
2022-08-11T09:19:19.011Z,94112.63
2022-08-11T09:24:39.585Z,94114.34
2022-08-11T09:29:41.569Z,94106.13
2022-08-11T09:34:44.376Z,94112.72
2022-08-11T09:40:04.973Z,94107.78
2022-08-11T09:45:08.234Z,94103.34
2022-08-11T09:50:11.256Z,94108.03
2022-08-11T09:55:15.197Z,94105.09
2022-08-11T10:00:17.362Z,94092.41
2022-08-11T10:05:38.954Z,94094.34
2022-08-11T10:10:41.734Z,94097.50
2022-08-11T10:16:14.441Z,94092.94
2022-08-11T10:21:15.819Z,94103.28
2022-08-11T10:26:38.649Z,94102.97
2022-08-11T10:32:04.277Z,94099.09
2022-08-11T10:37:07.197Z,94093.13
2022-08-11T10:42:57.128Z,94096.44
2022-08-11T10:47:59.033Z,94082.53
2022-08-11T10:53:20.124Z,94081.03
2022-08-11T10:58:41.412Z,94078.44
2022-08-11T11:03:43.903Z,94073.63
2022-08-11T11:08:53.297Z,94070.38
2022-08-11T11:14:14.171Z,94069.59
2022-08-11T11:19:19.411Z,94062.75
2022-08-11T11:24:46.376Z,94059.25
2022-08-11T11:30:07.513Z,94043.03
2022-08-11T11:35:28.093Z,94051.63
2022-08-11T11:40:31.679Z,94042.97
2022-08-11T11:45:34.563Z,94044.78
2022-08-11T11:50:37.950Z,94042.72
2022-08-11T11:55:40.171Z,94039.56
2022-08-11T12:01:02.638Z,94037.38
2022-08-11T12:06:05.043Z,94037.63
2022-08-11T12:11:28.310Z,94030.81
2022-08-11T12:16:35.015Z,94015.78
2022-08-11T12:22:01.078Z,94027.13
2022-08-11T12:27:28.602Z,94024.59
2022-08-11T12:32:32.879Z,94031.28
2022-08-11T12:37:46.082Z,94020.19
2022-08-11T12:43:08.255Z,94017.78
2022-08-11T12:48:58.639Z,94009.72
2022-08-11T12:54:14.286Z,94010.00
2022-08-11T12:59:34.939Z,94003.53
2022-08-11T13:04:59.445Z,93998.63
2022-08-11T13:10:04.528Z,93991.03
2022-08-11T13:15:07.063Z,93993.50
2022-08-11T13:20:13.460Z,93987.94
2022-08-11T13:25:17.079Z,93988.94
2022-08-11T13:30:41.113Z,93976.25
2022-08-11T13:35:46.858Z,93970.91
2022-08-11T13:40:56.104Z,93969.94
2022-08-11T13:46:18.535Z,93976.47
2022-08-11T13:51:34.754Z,93964.31
2022-08-11T13:56:41.844Z,93966.59
2022-08-11T14:02:20.597Z,93963.34
2022-08-11T14:07:22.943Z,93951.69
2022-08-11T14:12:45.844Z,93947.19
2022-08-11T14:17:52.971Z,93943.25
2022-08-11T14:22:56.722Z,93941.66
2022-08-11T14:28:34.476Z,93946.09
2022-08-11T14:33:21.186Z,93927.81
2022-08-11T14:38:23.381Z,93921.09
2022-08-11T14:44:13.166Z,93919.34
2022-08-11T14:49:06.306Z,93906.94
2022-08-11T14:54:28.340Z,93909.84
2022-08-11T14:59:30.895Z,93913.66
2022-08-11T15:04:36.991Z,93908.13
2022-08-11T15:10:09.882Z,93897.47
2022-08-11T15:15:25.987Z,93903.81
2022-08-11T15:20:48.184Z,93900.13
2022-08-11T15:26:02.413Z,93894.53
2022-08-11T15:31:23.380Z,93892.66
2022-08-11T15:36:46.392Z,93876.69
2022-08-11T15:42:37.669Z,93873.72
2022-08-11T15:47:44.449Z,93873.16
2022-08-11T15:52:53.912Z,93867.91
2022-08-11T15:58:14.046Z,93867.38
2022-08-11T16:04:06.175Z,93874.16
2022-08-11T16:08:59.770Z,93863.66
2022-08-11T16:14:23.293Z,93865.50
2022-08-11T16:19:28.476Z,93856.16
2022-08-11T16:27:03.234Z,93847.72
2022-08-11T16:29:54.947Z,93839.78
2022-08-11T16:35:28.776Z,93847.19
2022-08-11T16:40:31.744Z,93840.31
2022-08-11T16:45:53.436Z,93840.97
2022-08-11T16:50:56.467Z,93836.19
2022-08-11T16:56:03.198Z,93821.09
2022-08-11T17:01:05.827Z,93829.34
2022-08-11T17:06:26.497Z,93815.16
2022-08-11T17:11:50.426Z,93819.25
2022-08-11T17:16:52.551Z,93825.06
2022-08-11T17:22:13.739Z,93827.53
2022-08-11T17:27:19.043Z,93818.03
2022-08-11T17:32:55.803Z,93820.84
2022-08-11T17:38:21.129Z,93814.47
2022-08-11T17:43:41.877Z,93829.28
2022-08-11T17:48:47.440Z,93821.94
2022-08-11T17:54:24.533Z,93820.44
2022-08-11T17:59:49.278Z,93816.38
2022-08-11T18:04:52.725Z,93818.00
2022-08-11T18:10:14.128Z,93826.88
2022-08-11T18:15:35.102Z,93832.94
2022-08-11T18:20:55.582Z,93829.34
2022-08-11T18:26:19.352Z,93832.41
2022-08-11T18:31:40.437Z,93840.88
2022-08-11T18:37:05.174Z,93833.28
2022-08-11T18:42:34.426Z,93836.53
2022-08-11T18:47:57.192Z,93832.44
2022-08-11T18:53:19.596Z,93835.44
2022-08-11T18:58:48.013Z,93844.59
2022-08-11T19:04:10.245Z,93847.44
2022-08-11T19:09:34.020Z,93849.72
2022-08-11T19:14:55.770Z,93864.75
2022-08-11T19:20:17.782Z,93860.28
2022-08-11T19:25:39.715Z,93865.44
2022-08-11T19:31:00.596Z,93878.28
2022-08-11T19:36:21.895Z,93866.47
2022-08-11T19:41:56.483Z,93873.69
2022-08-11T19:47:19.104Z,93882.91
2022-08-11T19:52:39.735Z,93887.03
2022-08-11T19:58:01.311Z,93903.59
2022-08-11T20:03:22.428Z,93903.44
2022-08-11T20:08:42.994Z,93908.38
2022-08-11T20:14:05.267Z,93921.38
2022-08-11T20:19:55.738Z,93925.38
2022-08-11T20:25:06.274Z,93929.53
2022-08-11T20:30:27.330Z,93932.56
2022-08-11T20:35:48.438Z,93937.34
2022-08-11T20:41:09.360Z,93948.53
2022-08-11T20:46:30.147Z,93944.25
2022-08-11T20:51:52.965Z,93950.84
2022-08-11T20:57:15.245Z,93965.06
2022-08-11T21:02:38.066Z,93970.41
2022-08-11T21:08:02.416Z,93978.06
2022-08-11T21:13:27.116Z,93971.69
2022-08-11T21:18:51.243Z,93977.19
2022-08-11T21:24:15.654Z,93984.19
2022-08-11T21:29:36.828Z,93982.34
2022-08-11T21:34:57.802Z,93980.75
2022-08-11T21:40:19.552Z,93977.31
2022-08-11T21:45:40.757Z,93984.56
2022-08-11T21:51:01.861Z,93989.09
2022-08-11T21:56:26.227Z,93990.25
2022-08-11T22:01:48.470Z,93990.81
2022-08-11T22:07:10.176Z,93999.06
2022-08-11T22:12:34.905Z,94000.72
2022-08-11T22:17:58.183Z,94002.06
2022-08-11T22:23:19.757Z,94004.97
2022-08-11T22:28:42.419Z,94005.03
2022-08-11T22:34:03.474Z,94007.22
2022-08-11T22:39:25.524Z,94007.41
2022-08-11T22:44:47.085Z,94001.63
2022-08-11T22:50:11.811Z,94004.19
2022-08-11T22:55:33.962Z,94001.94
2022-08-11T23:00:56.131Z,94002.69
2022-08-11T23:06:18.040Z,93997.13
2022-08-11T23:12:04.763Z,94006.91
2022-08-11T23:17:19.383Z,94014.53
2022-08-11T23:22:50.010Z,94030.75
2022-08-11T23:28:11.315Z,94032.84
2022-08-11T23:33:33.207Z,94042.41
2022-08-11T23:38:54.153Z,94037.69
2022-08-11T23:44:15.123Z,94049.38
2022-08-11T23:49:35.966Z,94044.34
2022-08-11T23:54:57.421Z,94036.78
